KFGX

Fleming-Mason Airport

Flemingsburg, Kentucky, USA
METAR KFGX 192235Z AUTO 09003KT 10SM SCT032 27/21 A2997 RMK AO2 T02670206
Observed Flight Rules
Aug-19 @ 22:35 UTC (34 minutes ago) Visual Flight Rules
Wind Visibility Clouds
90° at 3 knots 10 miles
  • Scattered at 3,200' AGL
Temperatures Readings
Current 27°C / 81°F
Dewpoint 21°C / 70°F
Humidity 70%
Altimeter 29.97" Hg
Pressure 1015 hPa
Elevation 278
METAR KFGX 192235Z AUTO 09003KT 10SM SCT032 27/21 A2997 RMK AO2 T02670206
Observed Flight Rules
Aug-19 @ 22:35 UTC
(34 minutes ago)
VFR
Wind Visibility
90° at 3 knots 10 miles
Clouds
  • Scattered at 3,200' AGL
Temperature Dewpoint
27°C / 81°F 21°C / 70°F
Humidity Altimeter Pressure
70% 29.97" Hg 1015 hPa